전체상품목록 바로가기

본문 바로가기



실시간 구매후기

적립금은 물품구매액의 30%까지 현금처럼 사용하실수 있습니다.^^ 감사합니다.

현재 위치

  1. COMMUNITY
  2. 실시간 구매후기
상품 게시판 목록
번호 상품정보 카테고리 제목 작성자 작성일 조회 추천 평점
2942 라인쿨론_레드 내용 보기 오좋네요... HIT파일첨부[1] das**** 2015-02-24 23:19:20 6493 44 5점
2941 메시쿨론_디지탈 내용 보기 좋네요! HIT파일첨부[1] nyc**** 2015-02-24 21:49:25 6270 40 5점
2940 멜란지텐셜 4종세트 내용 보기 편하고 좋습니다. HIT파일첨부[1] car**** 2015-02-24 10:58:15 6999 71 5점
2939 메시쿨론_오렌지 내용 보기 가장 편안합니다 ~ HIT[1] min**** 2015-02-24 07:41:33 9600 58 5점
2938 라인쿨론_레드 내용 보기 좋은 제품입니다~ HIT파일첨부[1] jih**** 2015-02-22 16:37:19 9656 45 5점
2937 라인쿨론_블랙 내용 보기 구매 후기 입니다. HIT[1] wjd**** 2015-02-22 15:00:03 4954 48 5점
2936 와우텐셜_레드 내용 보기 처음 구매해봤는데 좋은 상품이라고 생각합니다~ HIT파일첨부[1] jih**** 2015-02-21 11:02:07 10573 53 5점
2935 메시쿨론_디지탈 내용 보기 입자마자 시원~ HIT파일첨부[1] sog**** 2015-02-20 01:04:32 10437 53 5점
2934 메시쿨론_그레이 내용 보기 생각보다 좋습니다!! HIT파일첨부[1] fre**** 2015-02-18 01:51:09 17111 84 5점
2933 멜란지텐셜_민트 내용 보기 착용감좋아요!! HIT파일첨부[1] fre**** 2015-02-18 01:47:05 12321 57 5점
2932 멜란지텐셜_와인 내용 보기 구매후기 HIT파일첨부[1] joh**** 2015-02-17 09:34:39 10788 55 5점
2931 멜란지텐셜 4종세트 내용 보기 기대됩니다 HIT파일첨부[1] meg**** 2015-02-17 02:39:07 9173 63 5점
2930 실크코튼_블루 내용 보기 좋습니다. HIT파일첨부 pkj**** 2015-02-17 00:29:30 15064 69 5점
2929 실크코튼_그레이 내용 보기 팬티가 너무좋군요^^ HIT파일첨부[1] k12**** 2015-02-16 19:47:20 10569 58 5점
2928 멜란지텐셜 4종세트 내용 보기 만족스럽습니다 HIT파일첨부[1] par**** 2015-02-16 16:32:36 9200 60 5점
2927 라인쿨론_레드 내용 보기 솔직한 후기 HIT[1] ori**** 2015-02-16 13:42:53 8382 58 5점
2926 내용 보기 2년만에 후기 올립니다. HIT파일첨부[1] fes**** 2015-02-16 07:33:29 10607 62 5점
2925 메시쿨론_인디고 내용 보기 메시쿨론 구매했습니다. HIT파일첨부[1] sxd**** 2015-02-15 21:40:07 10799 61 5점
2924 내용 보기 구매후기 HIT[1] idw**** 2015-02-15 19:59:49 8186 58 5점
2923 메시쿨론_블루 내용 보기 첫구매 후기 HIT파일첨부[1] das**** 2015-02-15 02:34:04 12993 70 5점
2922 멜란지텐셜 4종세트 내용 보기 지상 최고의 드로즈 HIT[1] knk**** 2015-02-14 11:49:33 7528 56 5점
2921 라인쿨론_레드 내용 보기 다시 올려요!! 후기!! 강추 함!! HIT파일첨부[1] the**** 2015-02-13 14:47:35 11356 55 5점
2920 실크코튼_블루 내용 보기 구매후기요 HIT[1] wjd**** 2015-02-13 14:32:40 9607 59 5점
2919 메시쿨론_디지탈 내용 보기 구매후기. HIT[1] ksk**** 2015-02-12 16:13:11 7246 49 5점
2918 라인쿨론_블랙 내용 보기 입어보니 이질감 없이 편합니다. HIT파일첨부[1] lon**** 2015-02-12 09:37:26 9592 50 5점
2917 메시쿨론_오렌지 내용 보기 메시쿨론후기 HIT[1] okh**** 2015-02-12 09:24:44 11488 66 5점
2916 실크코튼_그레이 내용 보기 좋네요. HIT[1] lep**** 2015-02-11 18:02:23 7501 61 5점
2915 멜란지텐셜 4종세트 내용 보기 메시쿨론 -> 멜란지텐션 교환 HIT[1] ss3**** 2015-02-11 17:40:48 7253 61 5점

글쓰기